Time;durP1;ratioP1;P1;durP2;ratioP2;P2;SDS_P1;SDS_P2;PMS_P1;PMS_P2;Temp;Humidity;BMP_temperature;BMP_pressure;BME280_temperature;BME280_humidity;BME280_pressure;Samples;Min_cycle;Max_cycle;Signal;HPM_P1;HPM_P2
2021/09/21 00:00:16;;;;;;;4.25;1.30;;;11.90;71.30;;;;;;2043308;28;20047;-93
2021/09/21 00:01:36;;;;;;;2.22;1.27;;;11.90;70.70;;;;;;2051586;28;20038;-93
2021/09/21 00:02:55;;;;;;;1.77;0.90;;;11.90;70.80;;;;;;2059057;28;20039;-94
2021/09/21 00:04:14;;;;;;;2.42;1.00;;;11.90;70.80;;;;;;2052467;28;20043;-93
2021/09/21 00:05:34;;;;;;;3.00;1.33;;;11.90;70.90;;;;;;2071937;28;20038;-93
2021/09/21 00:06:55;;;;;;;2.00;1.10;;;11.90;70.90;;;;;;2051771;29;20032;-93
2021/09/21 00:08:15;;;;;;;2.25;1.30;;;11.90;70.90;;;;;;2058513;28;20042;-93
2021/09/21 00:09:34;;;;;;;1.70;1.00;;;11.90;70.90;;;;;;2059067;28;20064;-93
2021/09/21 00:10:56;;;;;;;3.83;1.60;;;11.90;70.90;;;;;;2039497;29;20044;-91
2021/09/21 00:12:15;;;;;;;1.70;1.20;;;11.80;70.90;;;;;;2045702;28;20051;-92
2021/09/21 00:13:35;;;;;;;2.20;1.30;;;11.80;70.90;;;;;;2067094;28;20436;-93
2021/09/21 00:14:55;;;;;;;2.95;1.35;;;11.80;71.00;;;;;;2061469;28;20043;-92
2021/09/21 00:16:15;;;;;;;2.00;1.23;;;11.80;71.10;;;;;;2063254;28;20042;-93
2021/09/21 00:17:34;;;;;;;1.83;1.33;;;11.70;71.00;;;;;;2057081;28;20122;-93
2021/09/21 00:18:53;;;;;;;2.65;1.42;;;11.70;71.10;;;;;;2062436;28;20043;-93
2021/09/21 00:20:13;;;;;;;2.88;1.30;;;11.70;71.30;;;;;;2062792;28;20038;-93
2021/09/21 00:21:32;;;;;;;2.20;1.20;;;11.70;71.30;;;;;;2055020;28;20035;-93
2021/09/21 00:22:51;;;;;;;2.28;1.38;;;11.60;71.30;;;;;;2062383;28;20520;-93
2021/09/21 00:24:11;;;;;;;2.50;1.50;;;11.60;71.30;;;;;;2062835;28;20042;-93
2021/09/21 00:25:30;;;;;;;2.45;1.38;;;11.60;71.40;;;;;;2043799;28;20092;-93
2021/09/21 00:26:49;;;;;;;2.60;1.23;;;11.60;71.50;;;;;;2055765;28;20058;-92
2021/09/21 00:28:08;;;;;;;2.70;1.52;;;11.60;71.50;;;;;;2049785;29;20071;-92
2021/09/21 00:29:28;;;;;;;1.85;1.25;;;11.60;71.60;;;;;;2054407;28;20410;-93
2021/09/21 00:30:50;;;;;;;3.63;1.80;;;11.60;71.60;;;;;;2054774;28;20121;-92
2021/09/21 00:32:15;;;;;;;2.85;1.60;;;11.60;72.30;;;;;;2048986;28;20137;-92
2021/09/21 00:33:46;;;;;;;3.15;1.60;;;11.60;71.70;;;;;;2053056;28;20050;-92
2021/09/21 00:35:05;;;;;;;2.85;1.60;;;11.50;71.70;;;;;;2054694;28;20055;-93
2021/09/21 00:36:25;;;;;;;2.95;1.67;;;11.60;71.70;;;;;;2053029;28;20454;-93
2021/09/21 00:37:44;;;;;;;2.88;1.67;;;11.50;71.70;;;;;;2052460;28;20058;-93
2021/09/21 00:39:06;;;;;;;3.63;1.77;;;11.50;71.80;;;;;;2060706;28;20042;-94
2021/09/21 00:40:26;;;;;;;3.63;1.80;;;11.50;71.90;;;;;;2069520;28;20421;-92
2021/09/21 00:41:46;;;;;;;2.75;1.73;;;11.40;71.90;;;;;;2072233;28;20034;-93
2021/09/21 00:43:05;;;;;;;3.53;1.90;;;11.40;72.00;;;;;;2052736;28;20047;-93
2021/09/21 00:44:25;;;;;;;3.22;1.83;;;11.40;72.10;;;;;;2057504;28;20274;-93
2021/09/21 00:45:44;;;;;;;3.42;1.88;;;11.40;72.10;;;;;;2058785;28;20035;-92
2021/09/21 00:47:05;;;;;;;3.22;1.90;;;11.40;72.20;;;;;;2073124;28;20037;-93
2021/09/21 00:48:24;;;;;;;3.22;1.85;;;11.40;72.20;;;;;;2069482;28;20046;-93
2021/09/21 00:49:43;;;;;;;3.95;2.00;;;11.40;72.30;;;;;;2055475;28;20389;-93
2021/09/21 00:51:02;;;;;;;2.97;1.95;;;11.40;72.30;;;;;;2049167;28;20485;-94
2021/09/21 00:52:22;;;;;;;3.08;1.90;;;11.40;72.30;;;;;;2062113;28;20060;-93
2021/09/21 00:53:42;;;;;;;4.00;1.80;;;11.30;72.30;;;;;;2059957;28;20039;-93
2021/09/21 00:55:02;;;;;;;3.22;1.80;;;11.30;72.40;;;;;;2058189;28;20054;-93
2021/09/21 00:56:22;;;;;;;2.88;1.90;;;11.30;72.40;;;;;;2055353;28;20142;-92
2021/09/21 00:57:41;;;;;;;3.07;1.90;;;11.30;72.50;;;;;;2056496;28;20031;-95
2021/09/21 00:59:00;;;;;;;5.70;2.00;;;11.30;72.50;;;;;;2054453;28;20263;-92
2021/09/21 01:00:21;;;;;;;2.95;1.80;;;11.30;72.60;;;;;;2065965;28;20101;-92
2021/09/21 01:01:41;;;;;;;4.32;2.05;;;11.20;72.60;;;;;;2062740;28;20501;-93
2021/09/21 01:03:01;;;;;;;3.50;2.30;;;11.20;72.70;;;;;;2050401;28;20039;-93
2021/09/21 01:04:20;;;;;;;3.03;1.85;;;11.20;72.80;;;;;;2059221;28;20034;-92
2021/09/21 01:05:39;;;;;;;4.30;1.88;;;11.20;72.90;;;;;;2053940;28;20050;-93
2021/09/21 01:06:59;;;;;;;4.30;2.33;;;11.20;72.90;;;;;;2053963;28;20043;-92
2021/09/21 01:08:18;;;;;;;5.25;2.22;;;11.20;72.90;;;;;;2055244;28;20034;-92
2021/09/21 01:09:38;;;;;;;4.82;2.47;;;11.10;73.00;;;;;;2062133;28;20058;-92
2021/09/21 01:10:58;;;;;;;3.63;2.35;;;11.20;73.10;;;;;;2045814;29;20514;-92
2021/09/21 01:12:17;;;;;;;4.10;2.35;;;11.10;73.10;;;;;;2047450;28;20078;-92
2021/09/21 01:13:37;;;;;;;3.33;2.22;;;11.10;73.20;;;;;;2054095;28;20043;-93
2021/09/21 01:14:57;;;;;;;4.18;2.33;;;11.10;73.20;;;;;;2057309;28;20047;-93
2021/09/21 01:16:19;;;;;;;4.22;2.28;;;11.10;73.30;;;;;;2058884;28;20054;-92
2021/09/21 01:17:39;;;;;;;3.63;2.20;;;11.10;73.30;;;;;;2053035;28;20043;-93
2021/09/21 01:18:58;;;;;;;5.78;2.38;;;11.10;73.30;;;;;;2059779;28;20034;-93
2021/09/21 01:20:18;;;;;;;3.40;2.15;;;11.10;73.30;;;;;;2058665;28;20058;-93
2021/09/21 01:21:39;;;;;;;3.88;2.20;;;11.00;73.30;;;;;;2060890;28;20030;-93
2021/09/21 01:23:02;;;;;;;3.13;1.95;;;11.10;73.40;;;;;;2054033;28;20034;-92
2021/09/21 01:24:21;;;;;;;3.35;2.10;;;11.10;73.40;;;;;;2065215;28;20039;-92
2021/09/21 01:25:40;;;;;;;3.50;1.90;;;11.10;73.40;;;;;;2062132;28;20066;-93
2021/09/21 01:26:59;;;;;;;2.90;2.05;;;11.10;73.40;;;;;;2062437;28;20046;-92
2021/09/21 01:28:19;;;;;;;2.72;1.90;;;11.10;73.40;;;;;;2056526;28;20054;-92
2021/09/21 01:29:38;;;;;;;3.38;2.10;;;11.10;73.40;;;;;;2069907;28;20034;-93
2021/09/21 01:30:58;;;;;;;3.00;1.75;;;11.10;73.40;;;;;;2074557;28;20038;-93
2021/09/21 01:32:20;;;;;;;2.80;1.98;;;11.10;73.40;;;;;;2055051;28;20038;-92
2021/09/21 01:33:39;;;;;;;2.60;1.70;;;11.10;73.40;;;;;;2063973;28;20050;-92
2021/09/21 01:35:00;;;;;;;3.72;1.83;;;11.10;74.00;;;;;;2070317;28;20046;-92
2021/09/21 01:36:22;;;;;;;3.75;2.00;;;11.10;73.40;;;;;;2058084;28;20046;-91
2021/09/21 01:37:46;;;;;;;3.00;2.00;;;11.10;73.40;;;;;;2060045;28;20034;-92
2021/09/21 01:39:05;;;;;;;3.30;2.00;;;11.10;73.50;;;;;;2061238;28;20050;-93
2021/09/21 01:40:24;;;;;;;3.15;1.83;;;11.10;73.50;;;;;;2060979;28;20140;-93
2021/09/21 01:41:46;;;;;;;3.67;1.98;;;11.10;73.50;;;;;;2048274;29;20031;-92
2021/09/21 01:43:05;;;;;;;3.35;2.10;;;11.10;73.50;;;;;;2064178;28;20050;-92
2021/09/21 01:44:25;;;;;;;3.97;1.83;;;11.10;73.50;;;;;;2050014;28;20039;-92
2021/09/21 01:45:44;;;;;;;2.88;1.75;;;11.10;73.50;;;;;;2066966;28;20042;-92
2021/09/21 01:47:05;;;;;;;3.17;1.80;;;11.10;73.50;;;;;;2057033;28;20038;-92
2021/09/21 01:48:24;;;;;;;3.40;1.85;;;11.10;73.50;;;;;;2043354;28;20044;-93
2021/09/21 01:51:45;;;;;;;3.60;1.75;;;11.20;73.60;;;;;;2024271;29;20049;-93
2021/09/21 01:53:17;;;;;;;2.60;1.63;;;11.10;73.50;;;;;;2025499;29;20503;-93
2021/09/21 01:59:38;;;;;;;2.78;1.50;;;11.10;73.70;;;;;;2068897;28;20054;-93
2021/09/21 02:00:57;;;;;;;2.30;1.50;;;11.10;73.70;;;;;;2045003;28;20118;-93
2021/09/21 02:02:16;;;;;;;3.08;1.67;;;11.10;73.70;;;;;;2055596;28;20113;-92
2021/09/21 02:03:35;;;;;;;2.72;1.75;;;11.10;73.80;;;;;;2048467;28;20043;-92
2021/09/21 02:04:55;;;;;;;3.38;1.80;;;11.10;73.90;;;;;;2062613;28;20034;-92
2021/09/21 02:06:14;;;;;;;2.95;1.55;;;11.10;73.90;;;;;;2063271;28;20035;-92
2021/09/21 02:07:34;;;;;;;3.10;1.70;;;11.10;74.00;;;;;;2060498;28;20102;-93
2021/09/21 02:08:53;;;;;;;2.83;1.52;;;11.10;74.20;;;;;;2068298;28;20038;-93
2021/09/21 02:10:12;;;;;;;3.22;1.50;;;11.00;74.20;;;;;;2068578;28;20043;-92
2021/09/21 02:11:32;;;;;;;3.50;1.88;;;11.00;74.30;;;;;;2069444;28;20042;-93
2021/09/21 02:12:51;;;;;;;3.53;1.60;;;11.00;74.30;;;;;;2059404;28;20039;-92
2021/09/21 02:14:14;;;;;;;3.45;1.45;;;11.00;74.40;;;;;;2058465;28;20039;-93
2021/09/21 02:15:33;;;;;;;3.17;1.50;;;11.00;74.60;;;;;;2058666;28;20077;-92
2021/09/21 02:16:54;;;;;;;2.38;1.52;;;10.90;74.70;;;;;;2054802;28;20047;-92
2021/09/21 02:18:14;;;;;;;2.72;1.48;;;10.90;74.70;;;;;;2063337;28;20046;-92
2021/09/21 02:19:33;;;;;;;2.85;1.75;;;11.00;74.90;;;;;;2064670;28;20042;-92
2021/09/21 02:20:52;;;;;;;2.25;1.38;;;10.90;74.90;;;;;;2061125;28;20110;-92
2021/09/21 02:22:11;;;;;;;2.92;1.70;;;10.90;75.60;;;;;;2063994;28;20120;-93
2021/09/21 02:23:31;;;;;;;3.00;1.40;;;10.90;75.00;;;;;;2063602;28;20500;-92
2021/09/21 02:24:51;;;;;;;2.85;1.50;;;10.90;75.00;;;;;;2066626;28;20041;-92
2021/09/21 02:26:10;;;;;;;2.83;1.50;;;10.90;75.00;;;;;;2046963;28;20047;-91
2021/09/21 02:27:29;;;;;;;2.20;1.40;;;10.90;75.10;;;;;;2058757;28;20054;-93
2021/09/21 02:28:50;;;;;;;2.58;1.58;;;10.90;75.20;;;;;;2053430;28;20034;-92
2021/09/21 02:30:09;;;;;;;3.28;1.58;;;10.90;75.30;;;;;;2059376;28;20445;-93
2021/09/21 02:31:29;;;;;;;3.63;1.67;;;10.90;75.40;;;;;;2063416;28;20042;-92
2021/09/21 02:32:49;;;;;;;3.15;1.70;;;10.80;75.30;;;;;;2063100;28;20522;-92
2021/09/21 02:34:08;;;;;;;3.13;1.83;;;10.80;75.40;;;;;;2071398;28;20042;-92
2021/09/21 02:35:27;;;;;;;3.33;1.70;;;10.80;75.40;;;;;;2058187;28;20070;-92
2021/09/21 02:36:47;;;;;;;2.72;1.50;;;10.80;75.40;;;;;;2068423;28;20030;-93
2021/09/21 02:38:06;;;;;;;2.38;1.48;;;10.80;75.40;;;;;;2058394;28;20505;-92
2021/09/21 02:39:26;;;;;;;2.88;1.63;;;10.80;75.50;;;;;;2058098;28;20164;-92
2021/09/21 02:40:45;;;;;;;3.25;1.63;;;10.80;75.50;;;;;;2040119;28;20032;-93
2021/09/21 02:42:05;;;;;;;3.38;1.50;;;10.90;76.30;;;;;;2058576;28;20042;-92
2021/09/21 02:43:25;;;;;;;2.83;1.50;;;10.80;75.70;;;;;;2070859;28;20054;-92
2021/09/21 02:44:44;;;;;;;2.47;1.50;;;10.80;75.80;;;;;;2058320;28;20031;-92
2021/09/21 02:46:03;;;;;;;3.33;1.70;;;10.80;75.90;;;;;;2054425;28;20552;-91
2021/09/21 02:47:23;;;;;;;3.50;1.70;;;10.80;76.00;;;;;;2065907;28;20030;-93
2021/09/21 02:48:42;;;;;;;2.63;1.50;;;10.70;76.10;;;;;;2055167;28;20663;-92
2021/09/21 02:50:01;;;;;;;2.60;1.65;;;10.80;76.20;;;;;;2058797;28;20038;-92
2021/09/21 02:51:21;;;;;;;3.15;1.70;;;10.70;76.20;;;;;;2060230;28;20030;-93
2021/09/21 02:52:41;;;;;;;2.75;1.50;;;10.70;76.30;;;;;;2048544;29;20039;-92
2021/09/21 02:54:00;;;;;;;2.22;1.48;;;10.70;76.30;;;;;;2057693;28;20088;-92
2021/09/21 02:55:20;;;;;;;3.20;1.60;;;10.70;76.30;;;;;;2051267;28;20055;-93
2021/09/21 02:56:39;;;;;;;3.83;1.65;;;10.70;76.40;;;;;;2053762;28;20039;-92
2021/09/21 02:57:58;;;;;;;2.20;1.30;;;10.70;76.40;;;;;;2043391;28;20047;-92
2021/09/21 02:59:18;;;;;;;3.15;1.75;;;10.80;76.50;;;;;;2067141;28;20042;-93
2021/09/21 03:00:38;;;;;;;2.85;1.50;;;10.80;76.50;;;;;;2067145;28;20078;-92
2021/09/21 03:01:58;;;;;;;2.83;1.52;;;10.70;76.50;;;;;;2053967;28;20046;-93
2021/09/21 03:03:17;;;;;;;1.90;1.25;;;10.70;76.60;;;;;;2063366;28;20042;-91
2021/09/21 03:04:41;;;;;;;2.03;1.30;;;10.70;76.60;;;;;;2053835;28;20050;-92
2021/09/21 03:06:07;;;;;;;3.42;1.70;;;10.70;76.70;;;;;;2066664;28;20065;-92
2021/09/21 03:08:30;;;;;;;1.90;1.30;;;10.70;76.70;;;;;;2049600;28;20055;-92
2021/09/21 03:09:47;;;;;;;2.58;1.50;;;10.60;76.80;;;;;;2065233;28;20038;-93
2021/09/21 03:11:23;;;;;;;2.50;1.50;;;10.60;76.80;;;;;;2058275;28;20051;-92
2021/09/21 03:17:18;;;;;;;2.25;1.50;;;10.60;77.00;;;;;;2054085;28;20055;-93
2021/09/21 03:18:38;;;;;;;2.97;1.60;;;10.60;77.00;;;;;;2048132;28;20067;-92
2021/09/21 03:20:00;;;;;;;2.38;1.40;;;10.50;77.00;;;;;;2049416;28;20047;-93
2021/09/21 03:21:19;;;;;;;3.80;1.83;;;10.50;77.10;;;;;;2058695;28;20046;-92
2021/09/21 03:22:38;;;;;;;2.55;1.65;;;10.50;77.20;;;;;;2049811;28;20087;-92
2021/09/21 03:23:58;;;;;;;2.35;1.30;;;10.50;77.30;;;;;;2044332;29;20039;-92
2021/09/21 03:25:18;;;;;;;2.97;1.70;;;10.50;77.40;;;;;;2050946;28;20043;-93
2021/09/21 03:26:37;;;;;;;3.33;1.80;;;10.50;78.00;;;;;;2046792;29;20028;-93
2021/09/21 03:27:56;;;;;;;2.25;1.48;;;10.50;77.40;;;;;;2048823;28;20043;-92
2021/09/21 03:29:15;;;;;;;3.50;1.70;;;10.50;77.50;;;;;;2052959;28;20128;-92
2021/09/21 03:30:35;;;;;;;2.67;1.58;;;10.40;77.50;;;;;;2051837;28;20039;-92
2021/09/21 03:31:55;;;;;;;3.03;1.70;;;10.50;77.60;;;;;;2051693;28;20097;-92
2021/09/21 03:33:15;;;;;;;2.97;1.67;;;10.40;77.60;;;;;;2047457;29;20498;-92
2021/09/21 03:34:37;;;;;;;4.72;2.00;;;10.40;77.70;;;;;;2058849;28;20185;-93
2021/09/21 03:35:56;;;;;;;3.15;1.73;;;10.40;77.70;;;;;;2058162;28;20122;-92
2021/09/21 03:37:15;;;;;;;3.67;2.00;;;10.40;77.70;;;;;;2054448;28;20042;-92
2021/09/21 03:38:35;;;;;;;3.35;1.80;;;10.40;77.80;;;;;;2065401;28;20039;-92
2021/09/21 03:39:54;;;;;;;2.97;1.80;;;10.40;77.80;;;;;;2057443;28;20084;-92
2021/09/21 03:41:13;;;;;;;2.78;1.77;;;10.40;77.90;;;;;;2054823;28;20437;-91
2021/09/21 03:42:33;;;;;;;3.17;1.80;;;10.40;78.00;;;;;;2050922;28;20035;-93
2021/09/21 03:43:52;;;;;;;3.78;2.10;;;10.30;78.00;;;;;;2059421;28;20035;-92
2021/09/21 03:45:11;;;;;;;2.80;1.88;;;10.30;78.00;;;;;;2057637;28;20031;-93
2021/09/21 03:46:31;;;;;;;3.88;2.30;;;10.30;78.00;;;;;;2055110;28;20417;-92
2021/09/21 03:47:50;;;;;;;3.50;2.10;;;10.30;78.10;;;;;;2057930;28;20034;-92
2021/09/21 03:49:09;;;;;;;3.38;1.95;;;10.30;78.20;;;;;;2054282;28;20042;-92
2021/09/21 03:50:29;;;;;;;3.40;2.20;;;10.30;78.10;;;;;;2048581;28;20074;-92
2021/09/21 03:51:49;;;;;;;3.83;2.20;;;10.30;78.10;;;;;;2059108;28;20030;-92
2021/09/21 03:53:09;;;;;;;3.00;1.80;;;10.30;78.10;;;;;;2056461;28;20114;-92
2021/09/21 03:54:28;;;;;;;3.55;2.05;;;10.30;78.10;;;;;;2041540;29;20043;-92
2021/09/21 03:55:48;;;;;;;4.22;2.03;;;10.30;78.10;;;;;;2043612;29;20051;-92
2021/09/21 03:57:07;;;;;;;3.42;2.15;;;10.30;78.20;;;;;;2045362;29;20032;-92
2021/09/21 03:58:26;;;;;;;3.97;1.92;;;10.30;78.20;;;;;;2051780;28;20457;-92
2021/09/21 03:59:45;;;;;;;3.25;2.03;;;10.30;78.20;;;;;;2046091;29;20035;-92
2021/09/21 04:01:05;;;;;;;3.90;2.28;;;10.30;78.30;;;;;;2038758;29;20130;-92
2021/09/21 04:02:24;;;;;;;3.22;1.90;;;10.30;78.30;;;;;;2053210;28;20121;-92
2021/09/21 04:03:43;;;;;;;3.50;2.15;;;10.30;78.40;;;;;;2062616;28;20038;-92
2021/09/21 04:05:03;;;;;;;3.25;2.00;;;10.30;78.50;;;;;;2063367;28;20121;-92
2021/09/21 04:06:23;;;;;;;3.88;2.20;;;10.30;78.50;;;;;;2037338;29;20395;-92
2021/09/21 04:07:42;;;;;;;3.45;2.10;;;10.30;78.50;;;;;;2056129;28;20030;-92
2021/09/21 04:09:02;;;;;;;3.38;2.08;;;10.30;78.60;;;;;;2044880;29;20403;-92
2021/09/21 04:10:22;;;;;;;3.88;2.03;;;10.30;78.60;;;;;;2043498;28;20039;-92
2021/09/21 04:11:41;;;;;;;3.30;2.00;;;10.30;78.60;;;;;;2055731;28;20035;-92
2021/09/21 04:13:00;;;;;;;3.20;2.17;;;10.20;78.60;;;;;;2047562;29;20035;-92
2021/09/21 04:14:19;;;;;;;3.78;2.00;;;10.20;78.70;;;;;;2059246;28;20054;-92
2021/09/21 04:15:40;;;;;;;4.53;2.00;;;10.20;78.80;;;;;;2060735;28;20054;-93
2021/09/21 04:16:59;;;;;;;4.10;1.80;;;10.20;79.40;;;;;;2048143;29;20059;-92
2021/09/21 04:18:19;;;;;;;3.90;2.03;;;10.20;78.80;;;;;;2059263;28;20042;-92
2021/09/21 04:19:38;;;;;;;3.80;2.10;;;10.20;78.80;;;;;;2039874;29;20118;-92
2021/09/21 04:20:58;;;;;;;4.18;2.53;;;10.20;78.80;;;;;;2053946;28;20318;-92
2021/09/21 04:22:17;;;;;;;4.72;2.50;;;10.20;78.90;;;;;;2057502;28;20513;-92
2021/09/21 04:23:39;;;;;;;4.47;2.42;;;10.20;79.00;;;;;;2051805;28;20047;-92
2021/09/21 04:24:58;;;;;;;3.47;2.03;;;10.20;79.00;;;;;;2047664;28;20067;-92
2021/09/21 04:26:17;;;;;;;4.50;2.47;;;10.10;79.00;;;;;;2045691;28;20040;-92
2021/09/21 04:27:37;;;;;;;4.65;2.67;;;10.10;79.00;;;;;;2046499;28;20058;-92
2021/09/21 04:28:56;;;;;;;4.43;2.30;;;10.10;79.10;;;;;;2045636;28;20091;-92
2021/09/21 04:30:20;;;;;;;4.75;2.40;;;10.20;79.10;;;;;;2040222;29;20040;-92
2021/09/21 04:31:42;;;;;;;3.85;2.47;;;10.20;79.10;;;;;;2046929;28;20082;-92
2021/09/21 04:33:02;;;;;;;3.70;2.30;;;10.20;79.00;;;;;;2041718;29;20089;-92
2021/09/21 04:34:22;;;;;;;3.85;2.22;;;10.20;79.10;;;;;;2047085;28;20043;-91
2021/09/21 04:35:41;;;;;;;3.92;2.33;;;10.20;79.10;;;;;;2060566;28;20489;-91
2021/09/21 04:37:02;;;;;;;3.75;2.28;;;10.20;79.20;;;;;;2057413;28;20501;-92
2021/09/21 04:38:21;;;;;;;4.80;2.58;;;10.20;79.20;;;;;;2054735;28;20059;-92
2021/09/21 04:39:41;;;;;;;3.88;2.25;;;10.20;79.20;;;;;;2053564;28;20091;-91
2021/09/21 04:41:01;;;;;;;5.40;2.67;;;10.30;79.30;;;;;;2046578;28;20091;-93
2021/09/21 04:42:22;;;;;;;4.90;2.60;;;10.30;79.30;;;;;;2054424;28;20042;-92
2021/09/21 04:43:41;;;;;;;;;;;10.30;79.40;;;;;;2041524;29;20082;-92
2021/09/21 04:45:00;;;;;;;3.70;2.38;;;10.30;79.20;;;;;;2048559;28;19935;-92
2021/09/21 04:46:19;;;;;;;3.45;2.10;;;10.20;79.10;;;;;;2038289;29;20051;-91
2021/09/21 04:47:39;;;;;;;4.53;2.38;;;10.30;79.10;;;;;;2047510;28;20062;-92
2021/09/21 04:48:58;;;;;;;4.05;2.40;;;10.30;79.10;;;;;;2053637;28;20031;-92
2021/09/21 04:50:17;;;;;;;4.53;2.50;;;10.40;79.10;;;;;;2062443;28;20050;-92
2021/09/21 04:51:38;;;;;;;3.95;2.38;;;10.50;79.20;;;;;;2045843;28;20031;-91
2021/09/21 04:52:58;;;;;;;3.45;2.15;;;10.50;79.10;;;;;;2055563;28;20055;-92
2021/09/21 04:54:17;;;;;;;3.97;2.33;;;10.50;79.10;;;;;;2039908;29;20044;-92
2021/09/21 04:55:37;;;;;;;5.25;2.17;;;10.50;79.10;;;;;;2059368;28;20050;-92
2021/09/21 04:56:56;;;;;;;4.50;2.45;;;10.50;79.20;;;;;;2065847;28;20042;-92
2021/09/21 04:58:15;;;;;;;3.78;2.38;;;10.50;79.30;;;;;;2055202;29;20043;-92
2021/09/21 04:59:35;;;;;;;3.92;2.33;;;10.50;79.30;;;;;;2058907;28;20043;-93
2021/09/21 05:00:55;;;;;;;4.45;2.35;;;10.60;79.30;;;;;;2063859;28;20018;-92
2021/09/21 05:02:14;;;;;;;3.92;2.35;;;10.60;79.30;;;;;;2058422;28;20035;-90
2021/09/21 05:03:33;;;;;;;3.80;2.30;;;10.60;79.30;;;;;;2048644;28;20047;-88
2021/09/21 05:04:52;;;;;;;4.03;2.20;;;10.60;79.30;;;;;;2045621;29;20039;-92
2021/09/21 05:06:11;;;;;;;3.78;2.30;;;10.70;79.30;;;;;;2056968;28;20042;-93
2021/09/21 05:07:31;;;;;;;4.20;2.20;;;10.70;79.40;;;;;;2041754;29;20131;-92
2021/09/21 05:08:50;;;;;;;3.63;2.17;;;10.70;79.30;;;;;;2041267;28;20039;-91
2021/09/21 05:10:09;;;;;;;4.03;2.33;;;10.80;79.40;;;;;;2051201;28;20038;-91
2021/09/21 05:11:29;;;;;;;4.13;2.38;;;10.80;79.30;;;;;;2054749;28;20031;-93
2021/09/21 05:12:48;;;;;;;2.97;2.05;;;10.80;79.30;;;;;;2045248;28;20048;-92
2021/09/21 05:14:08;;;;;;;3.53;2.17;;;10.80;79.30;;;;;;2046461;28;20039;-85
2021/09/21 05:15:27;;;;;;;3.58;2.00;;;10.80;79.30;;;;;;2066343;28;20038;-92
2021/09/21 05:16:46;;;;;;;4.60;2.50;;;10.80;79.40;;;;;;2063140;28;20046;-91
2021/09/21 05:18:05;;;;;;;3.67;2.38;;;10.80;79.50;;;;;;2051772;28;20039;-90
2021/09/21 05:19:24;;;;;;;4.10;2.50;;;10.90;79.60;;;;;;2054271;28;20046;-90
2021/09/21 05:20:44;;;;;;;5.45;2.40;;;10.90;79.60;;;;;;2047438;28;20051;-91
2021/09/21 05:22:03;;;;;;;3.70;2.30;;;10.90;79.50;;;;;;2051302;28;20035;-91
2021/09/21 05:23:22;;;;;;;4.00;2.25;;;10.90;79.50;;;;;;2046293;29;20588;-89
2021/09/21 05:24:41;;;;;;;3.78;2.38;;;11.00;79.50;;;;;;2058805;28;20038;-91
2021/09/21 05:26:00;;;;;;;3.70;2.08;;;11.00;79.50;;;;;;2042596;29;20048;-92
2021/09/21 05:27:19;;;;;;;3.92;2.40;;;11.00;79.50;;;;;;2056217;28;20055;-92
2021/09/21 05:28:39;;;;;;;3.67;2.17;;;11.00;79.50;;;;;;2041088;29;20043;-90
2021/09/21 05:29:58;;;;;;;3.45;2.17;;;11.00;79.40;;;;;;2035135;28;20055;-89
2021/09/21 05:31:17;;;;;;;3.35;2.17;;;11.10;79.50;;;;;;2050265;28;20054;-92
2021/09/21 05:32:37;;;;;;;4.25;2.17;;;11.10;79.40;;;;;;2049670;28;20035;-91
2021/09/21 05:33:56;;;;;;;4.03;2.47;;;11.10;79.40;;;;;;2046975;28;20035;-91
2021/09/21 05:35:15;;;;;;;4.30;2.38;;;11.10;79.40;;;;;;2050288;28;20517;-90
2021/09/21 05:36:34;;;;;;;4.63;2.45;;;11.10;79.40;;;;;;2051265;28;20038;-91
2021/09/21 05:37:54;;;;;;;3.35;2.10;;;11.10;79.50;;;;;;2040404;28;20044;-92
2021/09/21 05:39:14;;;;;;;4.97;2.42;;;11.10;79.50;;;;;;2046317;29;20031;-92
2021/09/21 05:40:34;;;;;;;4.03;2.50;;;11.20;79.60;;;;;;2049097;28;20083;-91
2021/09/21 05:41:53;;;;;;;3.95;2.20;;;11.20;79.50;;;;;;2039814;28;20115;-91
2021/09/21 05:43:12;;;;;;;4.63;2.28;;;11.20;79.50;;;;;;2050475;28;20043;-94
2021/09/21 05:44:31;;;;;;;4.72;2.50;;;11.20;79.50;;;;;;2049080;28;20035;-94
2021/09/21 05:45:50;;;;;;;3.30;1.90;;;11.20;79.50;;;;;;2051206;28;20046;-92
2021/09/21 05:47:12;;;;;;;3.97;2.10;;;11.30;80.10;;;;;;2049247;28;20537;-92
2021/09/21 05:48:31;;;;;;;4.00;2.33;;;11.30;79.40;;;;;;2058123;28;20030;-91
2021/09/21 05:49:50;;;;;;;4.15;2.30;;;11.30;79.40;;;;;;2053230;28;20402;-92
2021/09/21 05:51:10;;;;;;;4.38;2.40;;;11.30;79.30;;;;;;2050153;29;20039;-92
2021/09/21 05:52:29;;;;;;;3.97;2.28;;;11.40;79.40;;;;;;2041567;29;20055;-92
2021/09/21 05:53:48;;;;;;;4.38;2.22;;;11.40;79.40;;;;;;2052622;28;20055;-92
2021/09/21 05:55:09;;;;;;;4.45;2.50;;;11.40;79.50;;;;;;2051978;28;20067;-93
2021/09/21 05:56:28;;;;;;;3.58;2.08;;;11.40;79.50;;;;;;2051227;28;20109;-93
2021/09/21 05:57:47;;;;;;;4.28;2.60;;;11.40;79.50;;;;;;2038461;29;20503;-93
2021/09/21 05:59:07;;;;;;;2.97;2.13;;;11.40;79.50;;;;;;2048664;28;20150;-93
2021/09/21 06:00:27;;;;;;;4.78;2.33;;;11.50;79.60;;;;;;2041479;29;20494;-93
2021/09/21 06:01:47;;;;;;;4.25;2.30;;;11.40;79.40;;;;;;2054951;28;20035;-91
2021/09/21 06:03:06;;;;;;;4.22;2.53;;;11.40;79.40;;;;;;2053128;29;20040;-92
2021/09/21 06:04:25;;;;;;;4.57;2.60;;;11.50;79.50;;;;;;2058713;28;20113;-93
2021/09/21 06:05:45;;;;;;;4.03;2.40;;;11.50;79.50;;;;;;2050706;29;20031;-92
2021/09/21 06:07:04;;;;;;;3.80;1.95;;;11.50;79.50;;;;;;2048048;29;20039;-91
2021/09/21 06:08:23;;;;;;;4.10;2.50;;;11.50;79.50;;;;;;2063775;28;20042;-93
2021/09/21 06:09:42;;;;;;;5.53;2.50;;;11.50;79.50;;;;;;2064599;28;20042;-94
2021/09/21 06:11:01;;;;;;;4.18;2.60;;;11.60;79.60;;;;;;2047641;29;20055;-92
2021/09/21 06:12:21;;;;;;;4.13;2.35;;;11.60;79.50;;;;;;2043018;29;20067;-92
2021/09/21 06:13:42;;;;;;;4.20;2.33;;;11.60;79.50;;;;;;2047597;29;20035;-92
2021/09/21 06:15:01;;;;;;;3.88;2.20;;;11.60;79.60;;;;;;2046377;28;20051;-92
2021/09/21 06:16:20;;;;;;;4.35;2.53;;;11.70;79.60;;;;;;2046133;28;20087;-92
2021/09/21 06:17:40;;;;;;;4.55;2.33;;;11.70;79.60;;;;;;2051022;28;20107;-92
2021/09/21 06:18:59;;;;;;;3.50;2.10;;;11.70;79.70;;;;;;2053330;28;20035;-92
2021/09/21 06:20:19;;;;;;;3.75;2.50;;;11.70;79.60;;;;;;2041882;29;20502;-93
2021/09/21 06:21:39;;;;;;;3.45;2.10;;;11.80;79.60;;;;;;2052183;28;20034;-93
2021/09/21 06:22:58;;;;;;;3.38;2.28;;;11.80;79.60;;;;;;2045905;29;20117;-93
2021/09/21 06:24:18;;;;;;;3.78;2.17;;;11.90;79.70;;;;;;2046939;29;20043;-92
2021/09/21 06:25:40;;;;;;;3.88;2.63;;;11.90;79.70;;;;;;2045775;28;20522;-90
2021/09/21 06:26:59;;;;;;;3.63;2.15;;;11.90;79.70;;;;;;2052544;28;20332;-93
2021/09/21 06:28:18;;;;;;;3.45;2.20;;;11.90;79.60;;;;;;2061498;28;20042;-94
2021/09/21 06:29:37;;;;;;;3.35;2.13;;;12.00;79.60;;;;;;2057579;28;20039;-93
2021/09/21 06:30:57;;;;;;;3.63;2.40;;;12.00;79.50;;;;;;2038318;29;20060;-93
2021/09/21 06:32:16;;;;;;;3.38;2.28;;;12.10;79.50;;;;;;2033377;29;20040;-91
2021/09/21 06:33:36;;;;;;;4.38;2.33;;;12.10;79.50;;;;;;2040302;29;20502;-92
2021/09/21 06:34:55;;;;;;;3.83;2.30;;;12.10;79.40;;;;;;2049687;28;20080;-92
2021/09/21 06:36:14;;;;;;;4.13;2.65;;;12.20;79.40;;;;;;2053463;28;20051;-93
2021/09/21 06:37:34;;;;;;;3.55;2.30;;;12.20;79.40;;;;;;2045491;28;20043;-93
2021/09/21 06:38:53;;;;;;;4.90;2.38;;;12.20;79.30;;;;;;2050731;28;20114;-93
2021/09/21 06:40:13;;;;;;;5.10;2.42;;;12.20;79.30;;;;;;2036541;29;20103;-93
2021/09/21 06:41:32;;;;;;;4.50;2.60;;;12.30;79.40;;;;;;2039237;29;20052;-92
2021/09/21 06:42:51;;;;;;;3.72;2.28;;;12.30;79.40;;;;;;2057292;28;20097;-93
2021/09/21 06:44:10;;;;;;;3.45;2.15;;;12.30;79.40;;;;;;2051188;28;20034;-93
2021/09/21 06:45:29;;;;;;;4.38;2.20;;;12.30;79.40;;;;;;2046269;29;20043;-92
2021/09/21 06:46:48;;;;;;;3.58;2.13;;;12.40;79.40;;;;;;2049855;28;20114;-92
2021/09/21 06:48:08;;;;;;;3.95;2.40;;;12.40;79.40;;;;;;2038528;29;20036;-91
2021/09/21 06:49:29;;;;;;;3.47;2.00;;;12.40;79.30;;;;;;2050846;28;20035;-91
2021/09/21 06:50:48;;;;;;;4.65;2.28;;;12.40;79.30;;;;;;2051426;28;20066;-92
2021/09/21 06:52:07;;;;;;;3.90;2.22;;;12.50;79.30;;;;;;2051138;28;20043;-93
2021/09/21 06:53:26;;;;;;;3.50;2.30;;;12.50;79.30;;;;;;2052913;28;20078;-93
2021/09/21 06:54:46;;;;;;;4.70;2.50;;;12.50;79.30;;;;;;2055058;28;20042;-91
2021/09/21 06:56:05;;;;;;;3.60;2.20;;;12.60;79.30;;;;;;2051142;29;20047;-91
2021/09/21 06:57:25;;;;;;;4.70;2.72;;;12.60;79.30;;;;;;2047897;28;20083;-92
2021/09/21 06:58:44;;;;;;;3.65;2.17;;;12.60;79.20;;;;;;2049631;29;20039;-93
2021/09/21 07:00:06;;;;;;;4.85;2.75;;;12.70;79.30;;;;;;2054351;28;20091;-93
2021/09/21 07:01:28;;;;;;;3.70;2.28;;;12.70;79.30;;;;;;2048069;29;20039;-91
2021/09/21 07:02:51;;;;;;;4.32;2.35;;;12.70;79.20;;;;;;2037442;29;20040;-92
2021/09/21 07:04:13;;;;;;;4.05;2.28;;;12.70;79.20;;;;;;2053145;28;20161;-93
2021/09/21 07:05:33;;;;;;;3.70;2.15;;;12.70;79.20;;;;;;2048669;29;20421;-94
2021/09/21 07:06:53;;;;;;;4.30;2.47;;;12.80;79.20;;;;;;2053174;28;20485;-93
2021/09/21 07:08:12;;;;;;;3.95;2.17;;;12.80;79.10;;;;;;2039074;29;20044;-92